sensor_id;sensor_type;location;lat;lon;timestamp;P1;durP1;ratioP1;P2;durP2;ratioP2
52982;SDS011;48698;45.736;13.926;2023-06-10T00:04:29;13.05;;;11.85;;
52982;SDS011;48698;45.736;13.926;2023-06-10T00:09:32;13.38;;;12.05;;
52982;SDS011;48698;45.736;13.926;2023-06-10T00:14:36;13.15;;;11.95;;
52982;SDS011;48698;45.736;13.926;2023-06-10T00:19:40;13.23;;;11.93;;
52982;SDS011;48698;45.736;13.926;2023-06-10T00:24:44;12.85;;;11.75;;
52982;SDS011;48698;45.736;13.926;2023-06-10T00:29:47;13.30;;;12.10;;
52982;SDS011;48698;45.736;13.926;2023-06-10T00:34:57;12.73;;;11.55;;
52982;SDS011;48698;45.736;13.926;2023-06-10T00:40:00;12.20;;;11.20;;
52982;SDS011;48698;45.736;13.926;2023-06-10T00:45:03;12.63;;;11.52;;
52982;SDS011;48698;45.736;13.926;2023-06-10T00:50:06;15.10;;;13.70;;
52982;SDS011;48698;45.736;13.926;2023-06-10T00:55:10;14.35;;;13.05;;
52982;SDS011;48698;45.736;13.926;2023-06-10T01:00:13;16.02;;;14.50;;
52982;SDS011;48698;45.736;13.926;2023-06-10T01:05:16;15.23;;;13.65;;
52982;SDS011;48698;45.736;13.926;2023-06-10T01:15:51;15.65;;;14.10;;
52982;SDS011;48698;45.736;13.926;2023-06-10T01:20:54;13.80;;;12.30;;
52982;SDS011;48698;45.736;13.926;2023-06-10T01:25:59;14.60;;;13.07;;
52982;SDS011;48698;45.736;13.926;2023-06-10T01:31:23;12.32;;;11.20;;
52982;SDS011;48698;45.736;13.926;2023-06-10T01:36:28;12.25;;;11.18;;
52982;SDS011;48698;45.736;13.926;2023-06-10T01:41:34;12.90;;;11.02;;
52982;SDS011;48698;45.736;13.926;2023-06-10T01:46:38;12.35;;;11.25;;
52982;SDS011;48698;45.736;13.926;2023-06-10T01:51:41;12.88;;;11.85;;
52982;SDS011;48698;45.736;13.926;2023-06-10T01:56:44;12.73;;;11.63;;
52982;SDS011;48698;45.736;13.926;2023-06-10T02:01:51;11.95;;;10.95;;
52982;SDS011;48698;45.736;13.926;2023-06-10T02:06:54;13.35;;;11.68;;
52982;SDS011;48698;45.736;13.926;2023-06-10T02:11:59;11.52;;;10.57;;
52982;SDS011;48698;45.736;13.926;2023-06-10T02:17:02;13.10;;;12.00;;
52982;SDS011;48698;45.736;13.926;2023-06-10T02:22:05;13.48;;;12.13;;
52982;SDS011;48698;45.736;13.926;2023-06-10T02:27:07;10.80;;;9.68;;
52982;SDS011;48698;45.736;13.926;2023-06-10T02:32:10;12.57;;;11.48;;
52982;SDS011;48698;45.736;13.926;2023-06-10T02:37:13;11.60;;;10.60;;
52982;SDS011;48698;45.736;13.926;2023-06-10T02:42:17;11.32;;;10.43;;
52982;SDS011;48698;45.736;13.926;2023-06-10T02:47:20;11.75;;;10.52;;
52982;SDS011;48698;45.736;13.926;2023-06-10T02:52:22;11.38;;;10.38;;
52982;SDS011;48698;45.736;13.926;2023-06-10T02:57:25;11.35;;;10.23;;
52982;SDS011;48698;45.736;13.926;2023-06-10T03:02:38;10.77;;;9.73;;
52982;SDS011;48698;45.736;13.926;2023-06-10T03:07:41;12.32;;;9.70;;
52982;SDS011;48698;45.736;13.926;2023-06-10T03:12:44;11.02;;;10.07;;
52982;SDS011;48698;45.736;13.926;2023-06-10T03:17:47;10.50;;;9.43;;
52982;SDS011;48698;45.736;13.926;2023-06-10T03:22:51;9.88;;;8.98;;
52982;SDS011;48698;45.736;13.926;2023-06-10T03:28:00;9.98;;;9.05;;
52982;SDS011;48698;45.736;13.926;2023-06-10T03:33:02;9.38;;;8.57;;
52982;SDS011;48698;45.736;13.926;2023-06-10T03:38:05;9.95;;;9.05;;
52982;SDS011;48698;45.736;13.926;2023-06-10T03:43:08;9.98;;;8.98;;
52982;SDS011;48698;45.736;13.926;2023-06-10T03:48:11;10.68;;;9.52;;
52982;SDS011;48698;45.736;13.926;2023-06-10T03:53:14;12.88;;;10.30;;
52982;SDS011;48698;45.736;13.926;2023-06-10T03:58:17;11.70;;;10.48;;
52982;SDS011;48698;45.736;13.926;2023-06-10T04:03:20;10.33;;;9.43;;
52982;SDS011;48698;45.736;13.926;2023-06-10T04:08:23;10.30;;;9.27;;
52982;SDS011;48698;45.736;13.926;2023-06-10T04:13:26;10.63;;;9.82;;
52982;SDS011;48698;45.736;13.926;2023-06-10T04:18:29;10.13;;;9.18;;
52982;SDS011;48698;45.736;13.926;2023-06-10T04:23:32;9.63;;;8.73;;
52982;SDS011;48698;45.736;13.926;2023-06-10T04:28:35;10.32;;;9.43;;
52982;SDS011;48698;45.736;13.926;2023-06-10T04:33:38;11.32;;;10.32;;
52982;SDS011;48698;45.736;13.926;2023-06-10T04:38:42;11.43;;;10.13;;
52982;SDS011;48698;45.736;13.926;2023-06-10T04:43:44;9.40;;;8.50;;
52982;SDS011;48698;45.736;13.926;2023-06-10T04:48:48;10.43;;;9.35;;
52982;SDS011;48698;45.736;13.926;2023-06-10T04:53:51;8.80;;;7.93;;
52982;SDS011;48698;45.736;13.926;2023-06-10T04:58:54;9.35;;;8.45;;
52982;SDS011;48698;45.736;13.926;2023-06-10T05:03:57;8.70;;;7.90;;
52982;SDS011;48698;45.736;13.926;2023-06-10T05:09:01;9.93;;;9.13;;
52982;SDS011;48698;45.736;13.926;2023-06-10T05:14:03;10.63;;;9.52;;
52982;SDS011;48698;45.736;13.926;2023-06-10T05:19:06;10.40;;;9.50;;
52982;SDS011;48698;45.736;13.926;2023-06-10T05:24:09;11.05;;;10.02;;
52982;SDS011;48698;45.736;13.926;2023-06-10T05:29:12;10.05;;;9.15;;
52982;SDS011;48698;45.736;13.926;2023-06-10T05:34:15;9.68;;;8.32;;
52982;SDS011;48698;45.736;13.926;2023-06-10T05:39:27;9.45;;;8.63;;
52982;SDS011;48698;45.736;13.926;2023-06-10T05:44:30;20.17;;;18.48;;
52982;SDS011;48698;45.736;13.926;2023-06-10T05:49:33;9.75;;;8.02;;
52982;SDS011;48698;45.736;13.926;2023-06-10T05:54:35;10.20;;;8.38;;
52982;SDS011;48698;45.736;13.926;2023-06-10T05:59:38;8.23;;;7.35;;
52982;SDS011;48698;45.736;13.926;2023-06-10T06:04:41;8.38;;;7.35;;
52982;SDS011;48698;45.736;13.926;2023-06-10T06:09:44;8.88;;;7.13;;
52982;SDS011;48698;45.736;13.926;2023-06-10T06:14:46;10.10;;;8.90;;
52982;SDS011;48698;45.736;13.926;2023-06-10T06:19:51;9.30;;;7.82;;
52982;SDS011;48698;45.736;13.926;2023-06-10T06:24:54;17.58;;;10.23;;
52982;SDS011;48698;45.736;13.926;2023-06-10T06:29:57;7.57;;;6.85;;
52982;SDS011;48698;45.736;13.926;2023-06-10T06:35:10;8.93;;;7.00;;
52982;SDS011;48698;45.736;13.926;2023-06-10T06:40:13;9.43;;;7.13;;
52982;SDS011;48698;45.736;13.926;2023-06-10T06:45:16;9.02;;;6.88;;
52982;SDS011;48698;45.736;13.926;2023-06-10T06:50:19;7.38;;;6.55;;
52982;SDS011;48698;45.736;13.926;2023-06-10T06:55:21;7.38;;;6.50;;
52982;SDS011;48698;45.736;13.926;2023-06-10T07:00:24;13.32;;;6.20;;
52982;SDS011;48698;45.736;13.926;2023-06-10T07:05:27;8.05;;;7.18;;
52982;SDS011;48698;45.736;13.926;2023-06-10T07:10:30;7.73;;;6.93;;
52982;SDS011;48698;45.736;13.926;2023-06-10T07:15:33;8.48;;;6.78;;
52982;SDS011;48698;45.736;13.926;2023-06-10T07:20:36;8.23;;;7.43;;
52982;SDS011;48698;45.736;13.926;2023-06-10T07:25:41;11.97;;;7.43;;
52982;SDS011;48698;45.736;13.926;2023-06-10T07:30:44;10.95;;;8.77;;
52982;SDS011;48698;45.736;13.926;2023-06-10T07:35:47;9.43;;;8.27;;
52982;SDS011;48698;45.736;13.926;2023-06-10T07:41:00;11.02;;;8.65;;
52982;SDS011;48698;45.736;13.926;2023-06-10T07:46:03;12.80;;;10.87;;
52982;SDS011;48698;45.736;13.926;2023-06-10T07:51:15;10.77;;;9.75;;
52982;SDS011;48698;45.736;13.926;2023-06-10T07:56:19;12.95;;;10.55;;
52982;SDS011;48698;45.736;13.926;2023-06-10T08:01:34;10.40;;;9.50;;
52982;SDS011;48698;45.736;13.926;2023-06-10T08:06:38;11.02;;;9.70;;
52982;SDS011;48698;45.736;13.926;2023-06-10T08:11:40;10.52;;;9.10;;
52982;SDS011;48698;45.736;13.926;2023-06-10T08:16:44;10.88;;;9.77;;
52982;SDS011;48698;45.736;13.926;2023-06-10T08:21:47;9.05;;;8.10;;
52982;SDS011;48698;45.736;13.926;2023-06-10T08:26:49;11.07;;;8.60;;
52982;SDS011;48698;45.736;13.926;2023-06-10T08:31:52;9.53;;;8.03;;
52982;SDS011;48698;45.736;13.926;2023-06-10T08:36:55;12.33;;;8.63;;
52982;SDS011;48698;45.736;13.926;2023-06-10T08:47:13;10.23;;;8.32;;
52982;SDS011;48698;45.736;13.926;2023-06-10T08:52:18;9.45;;;7.72;;
52982;SDS011;48698;45.736;13.926;2023-06-10T08:57:22;9.27;;;6.72;;
52982;SDS011;48698;45.736;13.926;2023-06-10T09:02:25;8.40;;;7.53;;
52982;SDS011;48698;45.736;13.926;2023-06-10T09:26:39;8.15;;;6.82;;
52982;SDS011;48698;45.736;13.926;2023-06-10T09:31:43;6.90;;;6.20;;
52982;SDS011;48698;45.736;13.926;2023-06-10T09:46:50;7.88;;;6.70;;
52982;SDS011;48698;45.736;13.926;2023-06-10T09:51:57;7.95;;;6.32;;
52982;SDS011;48698;45.736;13.926;2023-06-10T09:57:01;7.35;;;6.32;;
52982;SDS011;48698;45.736;13.926;2023-06-10T10:02:18;7.22;;;6.35;;
52982;SDS011;48698;45.736;13.926;2023-06-10T10:12:14;7.00;;;6.25;;
52982;SDS011;48698;45.736;13.926;2023-06-10T10:44:11;7.95;;;6.20;;
52982;SDS011;48698;45.736;13.926;2023-06-10T10:49:16;6.38;;;5.78;;
52982;SDS011;48698;45.736;13.926;2023-06-10T10:54:27;8.30;;;6.38;;
52982;SDS011;48698;45.736;13.926;2023-06-10T11:00:11;8.10;;;6.50;;
52982;SDS011;48698;45.736;13.926;2023-06-10T11:05:15;8.13;;;7.18;;
52982;SDS011;48698;45.736;13.926;2023-06-10T11:10:20;7.57;;;6.80;;
52982;SDS011;48698;45.736;13.926;2023-06-10T11:15:32;8.47;;;7.30;;
52982;SDS011;48698;45.736;13.926;2023-06-10T11:31:31;12.90;;;8.60;;
52982;SDS011;48698;45.736;13.926;2023-06-10T11:36:40;16.73;;;11.70;;
52982;SDS011;48698;45.736;13.926;2023-06-10T11:41:45;17.77;;;11.63;;
52982;SDS011;48698;45.736;13.926;2023-06-10T11:46:49;20.17;;;13.65;;
52982;SDS011;48698;45.736;13.926;2023-06-10T11:51:53;23.23;;;16.42;;
52982;SDS011;48698;45.736;13.926;2023-06-10T11:56:57;27.13;;;21.37;;
52982;SDS011;48698;45.736;13.926;2023-06-10T12:02:02;94.07;;;34.85;;
52982;SDS011;48698;45.736;13.926;2023-06-10T12:07:06;50.97;;;34.42;;
52982;SDS011;48698;45.736;13.926;2023-06-10T12:12:20;38.30;;;33.85;;
52982;SDS011;48698;45.736;13.926;2023-06-10T12:22:37;26.15;;;20.48;;
52982;SDS011;48698;45.736;13.926;2023-06-10T12:27:52;25.67;;;17.08;;
52982;SDS011;48698;45.736;13.926;2023-06-10T12:32:57;12.73;;;9.23;;
52982;SDS011;48698;45.736;13.926;2023-06-10T12:38:02;9.77;;;8.88;;
52982;SDS011;48698;45.736;13.926;2023-06-10T12:43:07;10.57;;;9.57;;
52982;SDS011;48698;45.736;13.926;2023-06-10T12:53:15;14.43;;;11.27;;
52982;SDS011;48698;45.736;13.926;2023-06-10T12:58:20;15.00;;;13.40;;
52982;SDS011;48698;45.736;13.926;2023-06-10T13:03:25;14.23;;;12.05;;
52982;SDS011;48698;45.736;13.926;2023-06-10T13:08:28;19.83;;;15.37;;
52982;SDS011;48698;45.736;13.926;2023-06-10T13:13:32;16.05;;;14.43;;
52982;SDS011;48698;45.736;13.926;2023-06-10T13:18:35;15.45;;;13.15;;
52982;SDS011;48698;45.736;13.926;2023-06-10T13:23:43;12.45;;;11.32;;
52982;SDS011;48698;45.736;13.926;2023-06-10T13:28:49;14.65;;;13.25;;
52982;SDS011;48698;45.736;13.926;2023-06-10T13:33:53;11.15;;;10.15;;
52982;SDS011;48698;45.736;13.926;2023-06-10T13:38:56;14.10;;;12.80;;
52982;SDS011;48698;45.736;13.926;2023-06-10T13:43:59;10.77;;;9.77;;
52982;SDS011;48698;45.736;13.926;2023-06-10T13:49:03;12.85;;;11.73;;
52982;SDS011;48698;45.736;13.926;2023-06-10T13:54:06;12.90;;;11.40;;
52982;SDS011;48698;45.736;13.926;2023-06-10T13:59:10;10.95;;;9.93;;
52982;SDS011;48698;45.736;13.926;2023-06-10T14:04:13;11.38;;;10.35;;
52982;SDS011;48698;45.736;13.926;2023-06-10T14:09:17;10.50;;;9.60;;
52982;SDS011;48698;45.736;13.926;2023-06-10T14:14:20;10.53;;;9.50;;
52982;SDS011;48698;45.736;13.926;2023-06-10T14:19:25;8.90;;;8.00;;
52982;SDS011;48698;45.736;13.926;2023-06-10T14:24:39;7.13;;;6.53;;
52982;SDS011;48698;45.736;13.926;2023-06-10T14:29:49;6.43;;;5.32;;
52982;SDS011;48698;45.736;13.926;2023-06-10T14:34:52;12.40;;;7.40;;
52982;SDS011;48698;45.736;13.926;2023-06-10T14:39:56;9.02;;;8.13;;
52982;SDS011;48698;45.736;13.926;2023-06-10T14:44:59;7.40;;;5.70;;
52982;SDS011;48698;45.736;13.926;2023-06-10T14:55:14;8.95;;;6.68;;
52982;SDS011;48698;45.736;13.926;2023-06-10T15:00:19;9.73;;;7.55;;
52982;SDS011;48698;45.736;13.926;2023-06-10T15:05:25;9.45;;;8.55;;
52982;SDS011;48698;45.736;13.926;2023-06-10T15:10:29;7.93;;;7.10;;
52982;SDS011;48698;45.736;13.926;2023-06-10T15:28:43;6.38;;;5.78;;
52982;SDS011;48698;45.736;13.926;2023-06-10T15:33:47;9.23;;;7.20;;
52982;SDS011;48698;45.736;13.926;2023-06-10T15:38:51;5.50;;;5.00;;
52982;SDS011;48698;45.736;13.926;2023-06-10T15:43:58;6.32;;;5.72;;
52982;SDS011;48698;45.736;13.926;2023-06-10T15:49:04;6.75;;;5.60;;
52982;SDS011;48698;45.736;13.926;2023-06-10T15:54:08;5.38;;;4.88;;
52982;SDS011;48698;45.736;13.926;2023-06-10T15:59:22;4.55;;;4.15;;
52982;SDS011;48698;45.736;13.926;2023-06-10T16:04:28;4.10;;;3.70;;
52982;SDS011;48698;45.736;13.926;2023-06-10T16:09:32;5.60;;;4.53;;
52982;SDS011;48698;45.736;13.926;2023-06-10T16:14:46;4.40;;;4.00;;
52982;SDS011;48698;45.736;13.926;2023-06-10T16:19:50;4.97;;;3.53;;
52982;SDS011;48698;45.736;13.926;2023-06-10T16:24:53;6.60;;;4.65;;
52982;SDS011;48698;45.736;13.926;2023-06-10T16:29:57;7.13;;;4.50;;
52982;SDS011;48698;45.736;13.926;2023-06-10T16:35:01;8.48;;;5.68;;
52982;SDS011;48698;45.736;13.926;2023-06-10T16:40:04;10.80;;;7.00;;
52982;SDS011;48698;45.736;13.926;2023-06-10T16:45:08;6.88;;;6.20;;
52982;SDS011;48698;45.736;13.926;2023-06-10T16:50:18;8.73;;;6.53;;
52982;SDS011;48698;45.736;13.926;2023-06-10T16:55:22;9.27;;;8.37;;
52982;SDS011;48698;45.736;13.926;2023-06-10T17:00:25;8.33;;;6.20;;
52982;SDS011;48698;45.736;13.926;2023-06-10T17:05:29;6.77;;;5.73;;
52982;SDS011;48698;45.736;13.926;2023-06-10T17:15:43;9.70;;;6.95;;
52982;SDS011;48698;45.736;13.926;2023-06-10T17:20:47;6.70;;;6.00;;
52982;SDS011;48698;45.736;13.926;2023-06-10T17:26:01;7.90;;;6.00;;
52982;SDS011;48698;45.736;13.926;2023-06-10T17:31:05;6.60;;;5.88;;
52982;SDS011;48698;45.736;13.926;2023-06-10T17:36:09;7.20;;;6.50;;
52982;SDS011;48698;45.736;13.926;2023-06-10T17:41:13;10.63;;;6.50;;
52982;SDS011;48698;45.736;13.926;2023-06-10T17:46:19;8.75;;;7.07;;
52982;SDS011;48698;45.736;13.926;2023-06-10T17:51:23;7.32;;;6.65;;
52982;SDS011;48698;45.736;13.926;2023-06-10T17:56:26;9.05;;;8.23;;
52982;SDS011;48698;45.736;13.926;2023-06-10T18:01:30;11.00;;;8.35;;
52982;SDS011;48698;45.736;13.926;2023-06-10T18:06:34;8.35;;;7.63;;
52982;SDS011;48698;45.736;13.926;2023-06-10T18:11:37;11.40;;;8.70;;
52982;SDS011;48698;45.736;13.926;2023-06-10T18:16:41;11.20;;;9.98;;
52982;SDS011;48698;45.736;13.926;2023-06-10T18:26:59;10.00;;;8.70;;
52982;SDS011;48698;45.736;13.926;2023-06-10T18:37:07;8.83;;;8.03;;
52982;SDS011;48698;45.736;13.926;2023-06-10T18:42:21;8.95;;;8.23;;
52982;SDS011;48698;45.736;13.926;2023-06-10T18:47:35;10.53;;;9.50;;
52982;SDS011;48698;45.736;13.926;2023-06-10T18:52:58;10.52;;;9.55;;
52982;SDS011;48698;45.736;13.926;2023-06-10T18:58:03;259.13;;;17.00;;
52982;SDS011;48698;45.736;13.926;2023-06-10T19:03:06;343.35;;;18.90;;
52982;SDS011;48698;45.736;13.926;2023-06-10T19:08:10;13.98;;;12.15;;
52982;SDS011;48698;45.736;13.926;2023-06-10T19:13:14;12.93;;;11.35;;
52982;SDS011;48698;45.736;13.926;2023-06-10T19:18:18;13.70;;;12.27;;
52982;SDS011;48698;45.736;13.926;2023-06-10T19:23:22;17.00;;;13.40;;
52982;SDS011;48698;45.736;13.926;2023-06-10T19:28:25;14.20;;;12.90;;
52982;SDS011;48698;45.736;13.926;2023-06-10T19:33:39;13.50;;;12.17;;
52982;SDS011;48698;45.736;13.926;2023-06-10T19:38:43;14.93;;;12.27;;
52982;SDS011;48698;45.736;13.926;2023-06-10T19:43:48;14.77;;;13.27;;
52982;SDS011;48698;45.736;13.926;2023-06-10T19:48:52;16.83;;;14.45;;
52982;SDS011;48698;45.736;13.926;2023-06-10T19:53:56;15.40;;;13.57;;
52982;SDS011;48698;45.736;13.926;2023-06-10T19:58:59;15.27;;;12.20;;
52982;SDS011;48698;45.736;13.926;2023-06-10T20:04:03;15.93;;;13.60;;
52982;SDS011;48698;45.736;13.926;2023-06-10T20:09:07;284.50;;;18.55;;
52982;SDS011;48698;45.736;13.926;2023-06-10T20:14:11;14.27;;;12.88;;
52982;SDS011;48698;45.736;13.926;2023-06-10T20:19:14;19.37;;;13.40;;
52982;SDS011;48698;45.736;13.926;2023-06-10T20:24:18;13.40;;;12.00;;
52982;SDS011;48698;45.736;13.926;2023-06-10T20:29:21;14.73;;;13.17;;
52982;SDS011;48698;45.736;13.926;2023-06-10T20:34:25;14.68;;;12.80;;
52982;SDS011;48698;45.736;13.926;2023-06-10T20:39:29;13.77;;;12.38;;
52982;SDS011;48698;45.736;13.926;2023-06-10T20:44:43;12.43;;;11.33;;
52982;SDS011;48698;45.736;13.926;2023-06-10T20:49:56;15.98;;;10.10;;
52982;SDS011;48698;45.736;13.926;2023-06-10T20:55:00;13.47;;;12.17;;
52982;SDS011;48698;45.736;13.926;2023-06-10T21:00:03;12.73;;;11.52;;
52982;SDS011;48698;45.736;13.926;2023-06-10T21:05:07;11.88;;;10.68;;
52982;SDS011;48698;45.736;13.926;2023-06-10T21:10:12;12.38;;;11.05;;
52982;SDS011;48698;45.736;13.926;2023-06-10T21:15:29;15.57;;;10.98;;
52982;SDS011;48698;45.736;13.926;2023-06-10T21:20:32;11.13;;;9.93;;
52982;SDS011;48698;45.736;13.926;2023-06-10T21:25:36;12.60;;;10.05;;
52982;SDS011;48698;45.736;13.926;2023-06-10T21:30:41;11.35;;;10.05;;
52982;SDS011;48698;45.736;13.926;2023-06-10T21:35:45;11.23;;;10.13;;
52982;SDS011;48698;45.736;13.926;2023-06-10T21:40:48;11.95;;;10.80;;
52982;SDS011;48698;45.736;13.926;2023-06-10T21:45:52;11.70;;;10.52;;
52982;SDS011;48698;45.736;13.926;2023-06-10T21:50:58;12.90;;;11.40;;
52982;SDS011;48698;45.736;13.926;2023-06-10T21:56:12;11.73;;;10.27;;
52982;SDS011;48698;45.736;13.926;2023-06-10T22:01:15;9.55;;;8.68;;
52982;SDS011;48698;45.736;13.926;2023-06-10T22:06:24;11.07;;;10.00;;
52982;SDS011;48698;45.736;13.926;2023-06-10T22:11:37;11.60;;;10.60;;
52982;SDS011;48698;45.736;13.926;2023-06-10T22:16:51;12.52;;;11.43;;
52982;SDS011;48698;45.736;13.926;2023-06-10T22:21:55;13.85;;;9.40;;
52982;SDS011;48698;45.736;13.926;2023-06-10T22:26:59;8.85;;;8.05;;
52982;SDS011;48698;45.736;13.926;2023-06-10T22:32:02;8.82;;;7.93;;
52982;SDS011;48698;45.736;13.926;2023-06-10T22:37:06;7.80;;;6.78;;
52982;SDS011;48698;45.736;13.926;2023-06-10T22:42:09;7.87;;;7.03;;
52982;SDS011;48698;45.736;13.926;2023-06-10T22:47:13;7.25;;;6.53;;
52982;SDS011;48698;45.736;13.926;2023-06-10T22:52:17;8.73;;;6.50;;
52982;SDS011;48698;45.736;13.926;2023-06-10T22:57:21;9.90;;;7.10;;
52982;SDS011;48698;45.736;13.926;2023-06-10T23:02:25;8.43;;;7.67;;
52982;SDS011;48698;45.736;13.926;2023-06-10T23:07:38;8.83;;;8.03;;
52982;SDS011;48698;45.736;13.926;2023-06-10T23:12:45;10.20;;;9.20;;
52982;SDS011;48698;45.736;13.926;2023-06-10T23:17:48;10.47;;;9.57;;
52982;SDS011;48698;45.736;13.926;2023-06-10T23:27:56;8.82;;;6.80;;
52982;SDS011;48698;45.736;13.926;2023-06-10T23:32:59;8.00;;;7.03;;
52982;SDS011;48698;45.736;13.926;2023-06-10T23:38:03;7.23;;;6.53;;
52982;SDS011;48698;45.736;13.926;2023-06-10T23:43:06;2.60;;;1.33;;
52982;SDS011;48698;45.736;13.926;2023-06-10T23:48:10;2.67;;;1.00;;
52982;SDS011;48698;45.736;13.926;2023-06-10T23:53:13;1.00;;;0.87;;
52982;SDS011;48698;45.736;13.926;2023-06-10T23:58:17;1.92;;;0.75;;
